Time;durP1;ratioP1;P1;durP2;ratioP2;P2;SDS_P1;SDS_P2;PMS_P1;PMS_P2;Temp;Humidity;BMP_temperature;BMP_pressure;BME280_temperature;BME280_humidity;BME280_pressure;Samples;Min_cycle;Max_cycle;Signal;HPM_P1;HPM_P2
2022/08/19 00:01:35;;;;;;;22.33;15.43;;;21.20;99.90;;;;;;5115278;28;20620;-50
2022/08/19 00:04:04;;;;;;;23.58;14.57;;;21.10;99.90;;;;;;5115161;28;20174;-53
2022/08/19 00:06:30;;;;;;;22.00;15.27;;;21.10;99.90;;;;;;5097126;28;20177;-47
2022/08/19 00:08:58;;;;;;;19.67;15.13;;;21.00;99.90;;;;;;5096432;28;20637;-47
2022/08/19 00:11:27;;;;;;;21.10;14.07;;;21.00;99.90;;;;;;5095920;28;20233;-50
2022/08/19 00:13:53;;;;;;;17.95;14.15;;;21.00;99.90;;;;;;5093426;28;20212;-47
2022/08/19 00:16:20;;;;;;;22.65;14.02;;;21.00;99.90;;;;;;5096325;28;20637;-47
2022/08/19 00:18:47;;;;;;;17.17;13.43;;;21.00;99.90;;;;;;5077347;28;20170;-50
2022/08/19 00:21:14;;;;;;;17.38;13.65;;;21.00;99.90;;;;;;5099297;28;20675;-52
2022/08/19 00:23:40;;;;;;;18.90;12.80;;;21.00;99.90;;;;;;5114828;28;20621;-48
2022/08/19 00:26:07;;;;;;;16.63;12.75;;;21.00;99.90;;;;;;5098408;28;20197;-52
2022/08/19 00:28:35;;;;;;;20.25;13.10;;;21.10;99.90;;;;;;5102005;28;20184;-52
2022/08/19 00:31:02;;;;;;;20.73;12.95;;;21.00;99.90;;;;;;5108537;28;20680;-51
2022/08/19 00:33:32;;;;;;;21.70;13.48;;;21.00;99.90;;;;;;5114160;28;20185;-51
2022/08/19 00:36:04;;;;;;;20.10;13.80;;;21.00;99.90;;;;;;5101983;28;20190;-49
2022/08/19 00:38:29;;;;;;;18.92;13.38;;;20.90;99.90;;;;;;5091224;28;20473;-48
2022/08/19 00:40:55;;;;;;;19.42;13.52;;;20.90;99.90;;;;;;5080576;28;20192;-45
2022/08/19 00:43:24;;;;;;;18.73;13.60;;;20.90;99.90;;;;;;5096576;28;20556;-50
2022/08/19 00:45:50;;;;;;;21.00;13.45;;;20.90;99.90;;;;;;5096130;28;20181;-49
2022/08/19 00:48:18;;;;;;;19.10;13.00;;;20.90;99.90;;;;;;5112948;27;20240;-49
2022/08/19 00:50:45;;;;;;;16.33;12.82;;;20.90;99.90;;;;;;5100650;28;20245;-49
2022/08/19 00:53:14;;;;;;;16.67;13.07;;;20.90;99.90;;;;;;5107875;28;20177;-53
2022/08/19 00:55:44;;;;;;;19.27;12.48;;;20.80;99.90;;;;;;5101189;28;20265;-54
2022/08/19 00:58:13;;;;;;;19.75;12.50;;;20.80;99.90;;;;;;5076638;28;20182;-48
2022/08/19 01:00:39;;;;;;;24.08;11.93;;;20.80;99.90;;;;;;5107124;28;20200;-47
2022/08/19 01:03:08;;;;;;;16.00;11.68;;;20.80;99.90;;;;;;5112057;28;20177;-48
2022/08/19 01:05:35;;;;;;;16.38;12.07;;;20.80;99.90;;;;;;5099947;28;20189;-49
2022/08/19 01:08:04;;;;;;;19.42;12.60;;;20.80;99.90;;;;;;5087225;28;20177;-51
2022/08/19 01:10:35;;;;;;;20.98;12.10;;;20.80;99.90;;;;;;5091748;28;20301;-48
2022/08/19 01:13:03;;;;;;;18.67;12.73;;;20.80;99.90;;;;;;5100820;28;20641;-52
2022/08/19 01:15:38;;;;;;;18.73;12.32;;;20.80;99.90;;;;;;5102533;28;20224;-51
2022/08/19 01:18:08;;;;;;;17.10;11.93;;;20.80;99.90;;;;;;5094131;28;20234;-48
2022/08/19 01:20:34;;;;;;;17.23;12.38;;;20.80;99.90;;;;;;5102586;28;20280;-46
2022/08/19 01:23:00;;;;;;;21.80;11.80;;;20.80;99.90;;;;;;5105401;28;20747;-50
2022/08/19 01:25:39;;;;;;;20.90;12.70;;;20.70;99.90;;;;;;5098675;28;20182;-46
2022/08/19 01:28:05;;;;;;;17.45;12.68;;;20.70;99.90;;;;;;5093770;28;20594;-49
2022/08/19 01:30:33;;;;;;;18.77;12.88;;;20.70;99.90;;;;;;5094119;28;20221;-45
2022/08/19 01:33:00;;;;;;;20.27;12.80;;;20.70;99.90;;;;;;5099514;28;20252;-52
2022/08/19 01:35:28;;;;;;;23.70;13.52;;;20.70;99.90;;;;;;5111128;28;20268;-50
2022/08/19 01:38:00;;;;;;;22.20;14.10;;;20.70;99.90;;;;;;5111417;28;20204;-49
2022/08/19 01:40:30;;;;;;;22.05;13.88;;;20.60;99.90;;;;;;5094197;28;20186;-51
2022/08/19 01:42:56;;;;;;;24.42;15.05;;;20.60;99.90;;;;;;5075680;28;20185;-51
2022/08/19 01:45:25;;;;;;;22.88;13.82;;;20.50;99.90;;;;;;5102649;28;20654;-46
2022/08/19 01:47:50;;;;;;;18.90;13.07;;;20.40;99.90;;;;;;5094500;28;20221;-46
2022/08/19 01:50:16;;;;;;;20.95;14.02;;;20.40;99.90;;;;;;5103654;28;20611;-50
2022/08/19 01:52:43;;;;;;;20.63;14.13;;;20.40;99.90;;;;;;5093816;28;20189;-48
2022/08/19 01:55:14;;;;;;;21.65;13.55;;;20.30;99.90;;;;;;5098845;28;20230;-51
2022/08/19 01:57:43;;;;;;;18.08;12.82;;;20.30;99.90;;;;;;5113974;28;20166;-51
2022/08/19 02:00:12;;;;;;;19.88;12.40;;;20.30;99.90;;;;;;5101771;28;20170;-48
2022/08/19 02:02:39;;;;;;;19.30;12.13;;;20.30;99.90;;;;;;5086179;28;20193;-48
2022/08/19 02:05:07;;;;;;;17.67;10.38;;;20.30;99.90;;;;;;5085712;28;20181;-52
2022/08/19 02:07:34;;;;;;;18.17;10.02;;;20.20;99.90;;;;;;5092731;28;20178;-49
2022/08/19 02:10:06;;;;;;;16.05;10.20;;;20.20;99.90;;;;;;5064352;28;20181;-51
2022/08/19 02:12:31;;;;;;;18.55;10.23;;;20.20;99.90;;;;;;5114127;28;20174;-52
2022/08/19 02:14:58;;;;;;;17.30;10.77;;;20.20;99.90;;;;;;5103705;28;20266;-50
2022/08/19 02:17:24;;;;;;;33.22;12.55;;;20.10;99.90;;;;;;5093496;28;20189;-50
2022/08/19 02:19:50;;;;;;;18.05;12.13;;;20.10;99.90;;;;;;5080310;28;20177;-50
2022/08/19 02:22:15;;;;;;;19.42;11.98;;;20.10;99.90;;;;;;5094400;28;20212;-56
2022/08/19 02:24:42;;;;;;;16.40;11.90;;;20.00;99.90;;;;;;5074559;28;20224;-46
2022/08/19 02:27:07;;;;;;;18.10;12.80;;;20.00;99.90;;;;;;5104357;28;20186;-50
2022/08/19 02:29:33;;;;;;;20.30;13.38;;;19.90;99.90;;;;;;5103168;28;20185;-49
2022/08/19 02:31:59;;;;;;;16.90;11.98;;;19.80;99.90;;;;;;5092958;28;20209;-50
2022/08/19 02:34:25;;;;;;;18.77;12.98;;;19.80;99.90;;;;;;5095143;28;20184;-51
2022/08/19 02:36:51;;;;;;;23.02;12.85;;;19.80;99.90;;;;;;5094727;28;20209;-51
2022/08/19 02:39:18;;;;;;;18.15;12.93;;;19.80;99.90;;;;;;5093186;28;20187;-47
2022/08/19 02:41:44;;;;;;;20.45;13.63;;;19.80;99.90;;;;;;5093507;28;20273;-49
2022/08/19 02:44:09;;;;;;;20.15;14.07;;;19.70;99.90;;;;;;5091623;28;20252;-50
2022/08/19 02:46:36;;;;;;;21.83;15.38;;;19.70;99.90;;;;;;5110971;28;20215;-53
2022/08/19 02:49:06;;;;;;;22.27;15.20;;;19.70;99.90;;;;;;5094039;28;20225;-54
2022/08/19 02:51:39;;;;;;;24.75;16.25;;;19.70;99.90;;;;;;5092606;28;20209;-48
2022/08/19 02:54:06;;;;;;;24.75;16.05;;;19.60;99.90;;;;;;5074354;28;20178;-49
2022/08/19 02:56:35;;;;;;;27.15;17.48;;;19.70;99.90;;;;;;5092090;28;20217;-47
2022/08/19 02:59:01;;;;;;;26.80;18.08;;;19.60;99.90;;;;;;5101188;28;20177;-50
2022/08/19 03:01:30;;;;;;;23.50;17.30;;;19.60;99.90;;;;;;5112065;28;20189;-47
2022/08/19 03:03:58;;;;;;;26.52;17.88;;;19.50;99.90;;;;;;5095126;28;20173;-49
2022/08/19 03:06:25;;;;;;;30.40;18.75;;;19.50;99.90;;;;;;5091699;28;20173;-46
2022/08/19 03:08:51;;;;;;;28.70;18.80;;;19.50;99.90;;;;;;5093219;28;20177;-51
2022/08/19 03:11:21;;;;;;;27.42;20.38;;;19.60;99.90;;;;;;5077384;28;20301;-51
2022/08/19 03:13:48;;;;;;;27.27;19.40;;;19.60;99.90;;;;;;5102340;28;20178;-49
2022/08/19 03:16:15;;;;;;;32.50;21.80;;;19.60;99.90;;;;;;5066981;28;20176;-48
2022/08/19 03:18:41;;;;;;;31.02;21.08;;;19.50;99.90;;;;;;5111675;28;20269;-48
2022/08/19 03:21:07;;;;;;;32.83;21.52;;;19.50;99.90;;;;;;5093731;28;20295;-50
2022/08/19 03:23:35;;;;;;;28.52;22.95;;;19.60;99.90;;;;;;5105828;28;20553;-48
2022/08/19 03:26:04;;;;;;;34.67;23.45;;;19.60;99.90;;;;;;5096855;28;20258;-47
2022/08/19 03:28:31;;;;;;;39.83;24.73;;;19.60;99.90;;;;;;5094444;28;20177;-50
2022/08/19 03:31:03;;;;;;;36.42;26.00;;;19.60;99.90;;;;;;5110625;28;20281;-51
2022/08/19 03:33:29;;;;;;;38.08;25.42;;;19.60;99.90;;;;;;5112841;28;20222;-49
2022/08/19 03:36:07;;;;;;;35.85;26.88;;;19.50;99.90;;;;;;5111356;28;20180;-48
2022/08/19 03:38:33;;;;;;;45.83;28.08;;;19.50;99.90;;;;;;5098935;28;20254;-51
2022/08/19 03:41:06;;;;;;;41.13;28.83;;;19.50;99.90;;;;;;5092110;28;20188;-51
2022/08/19 03:43:33;;;;;;;52.20;30.60;;;19.50;99.90;;;;;;5075281;28;20170;-51
2022/08/19 03:46:05;;;;;;;44.95;30.02;;;19.50;99.90;;;;;;5105495;28;20208;-50
2022/08/19 03:48:31;;;;;;;45.30;30.35;;;19.50;99.90;;;;;;5093421;28;20233;-47
2022/08/19 03:50:58;;;;;;;49.40;30.45;;;19.40;99.90;;;;;;5096038;28;20302;-48
2022/08/19 03:53:26;;;;;;;46.08;29.58;;;19.40;99.90;;;;;;5095620;28;20178;-51
2022/08/19 03:55:53;;;;;;;54.05;30.70;;;19.40;99.90;;;;;;5107965;28;20196;-51
2022/08/19 03:58:19;;;;;;;48.90;30.92;;;19.50;99.90;;;;;;5097434;28;20182;-52
2022/08/19 04:00:45;;;;;;;48.05;31.35;;;19.40;99.90;;;;;;5084107;28;20194;-47
2022/08/19 04:03:10;;;;;;;55.28;31.88;;;19.40;99.90;;;;;;5077682;28;20200;-48
2022/08/19 04:05:37;;;;;;;51.20;31.48;;;19.40;99.90;;;;;;5088453;28;20181;-53
2022/08/19 04:08:05;;;;;;;52.33;31.05;;;19.40;99.90;;;;;;5096181;28;20277;-51
2022/08/19 04:10:35;;;;;;;51.78;32.25;;;19.30;99.90;;;;;;5103760;28;20214;-45
2022/08/19 04:13:01;;;;;;;53.83;31.30;;;19.30;99.90;;;;;;5102437;28;20192;-51
2022/08/19 04:15:30;;;;;;;55.80;33.53;;;19.30;99.90;;;;;;5097235;28;20185;-50
2022/08/19 04:17:55;;;;;;;50.83;32.55;;;19.30;99.90;;;;;;5094979;28;20174;-50
2022/08/19 04:20:21;;;;;;;47.65;32.33;;;19.30;99.90;;;;;;5095335;28;20281;-48
2022/08/19 04:22:47;;;;;;;59.70;32.65;;;19.20;99.90;;;;;;5109380;28;20213;-51
2022/08/19 04:25:12;;;;;;;57.70;33.55;;;19.20;99.90;;;;;;5105121;28;20298;-52
2022/08/19 04:27:38;;;;;;;56.42;33.20;;;19.20;99.90;;;;;;5093257;28;20189;-55
2022/08/19 04:30:04;;;;;;;56.67;33.10;;;19.20;99.90;;;;;;5106336;28;20262;-52
2022/08/19 04:32:31;;;;;;;56.55;33.22;;;19.10;99.90;;;;;;5114332;28;20664;-47
2022/08/19 04:34:58;;;;;;;51.05;32.17;;;19.10;99.90;;;;;;5106814;28;20589;-49
2022/08/19 04:37:26;;;;;;;53.50;32.28;;;19.10;99.90;;;;;;5114518;28;20173;-48
2022/08/19 04:42:39;;;;;;;52.25;32.53;;;19.10;99.90;;;;;;5112497;28;20262;-52
2022/08/19 04:45:11;;;;;;;60.75;33.72;;;19.10;99.90;;;;;;5109025;28;20185;-49
2022/08/19 04:47:39;;;;;;;60.80;33.47;;;19.10;99.90;;;;;;5094915;28;20213;-50
2022/08/19 04:50:07;;;;;;;60.85;32.80;;;19.10;99.90;;;;;;5104835;28;20189;-51
2022/08/19 04:52:33;;;;;;;63.22;33.72;;;19.10;99.90;;;;;;5084715;28;20196;-46
2022/08/19 04:54:59;;;;;;;57.90;31.73;;;19.10;99.90;;;;;;5100897;28;20308;-48
2022/08/19 04:57:26;;;;;;;55.58;32.13;;;19.10;99.90;;;;;;5076611;28;20633;-53
2022/08/19 04:59:57;;;;;;;63.40;34.22;;;19.10;99.90;;;;;;5093726;28;20264;-49
2022/08/19 05:02:24;;;;;;;57.05;32.00;;;19.10;99.90;;;;;;5092730;27;20196;-52
2022/08/19 05:04:56;;;;;;;59.65;34.20;;;19.20;99.90;;;;;;5098449;28;20641;-50
2022/08/19 05:07:22;;;;;;;54.80;31.48;;;19.20;99.90;;;;;;5095838;28;20805;-50
2022/08/19 05:09:48;;;;;;;58.50;33.40;;;19.20;99.90;;;;;;5093284;28;20758;-53
2022/08/19 05:12:13;;;;;;;63.55;33.65;;;19.20;99.90;;;;;;5113195;28;20217;-48
2022/08/19 05:14:39;;;;;;;61.28;33.47;;;19.30;99.90;;;;;;5111855;28;20605;-55
2022/08/19 05:17:05;;;;;;;56.13;31.67;;;19.30;99.90;;;;;;5093411;27;20178;-54
2022/08/19 05:22:35;;;;;;;61.42;33.28;;;19.30;99.90;;;;;;5078725;28;20174;-53
2022/08/19 05:25:12;;;;;;;57.53;32.70;;;19.30;99.90;;;;;;5086646;28;20177;-49
2022/08/19 05:27:38;;;;;;;60.33;33.78;;;19.30;99.90;;;;;;5114459;28;20165;-52
2022/08/19 05:30:05;;;;;;;61.58;34.05;;;19.30;99.90;;;;;;5070676;28;20185;-49
2022/08/19 05:32:31;;;;;;;67.15;34.67;;;19.40;99.90;;;;;;5102579;28;20224;-53
2022/08/19 05:34:57;;;;;;;68.72;36.22;;;19.40;99.90;;;;;;5096717;28;20499;-53
2022/08/19 05:37:23;;;;;;;61.03;34.67;;;19.40;99.90;;;;;;5095064;28;20189;-52
2022/08/19 05:39:49;;;;;;;73.45;36.55;;;19.40;99.90;;;;;;5108945;28;20243;-51
2022/08/19 05:42:15;;;;;;;68.78;36.60;;;19.40;99.90;;;;;;5111788;27;20189;-52
2022/08/19 05:44:47;;;;;;;72.45;38.13;;;19.50;99.90;;;;;;5076570;28;20181;-55
2022/08/19 05:47:14;;;;;;;83.25;38.17;;;19.40;99.90;;;;;;5095748;28;20181;-49
2022/08/19 05:49:41;;;;;;;70.03;36.75;;;19.50;99.90;;;;;;5078394;28;20192;-50
2022/08/19 05:52:10;;;;;;;77.38;38.42;;;19.50;99.90;;;;;;5109997;28;20201;-51
2022/08/19 05:54:40;;;;;;;90.68;39.67;;;19.50;99.90;;;;;;5095602;28;20265;-48
2022/08/19 05:57:06;;;;;;;71.22;39.33;;;19.60;99.90;;;;;;5106733;27;20176;-50
2022/08/19 05:59:32;;;;;;;84.22;40.33;;;19.60;99.90;;;;;;5097549;27;20181;-54
2022/08/19 06:02:00;;;;;;;82.15;40.40;;;19.60;99.90;;;;;;5108012;28;20933;-56
2022/08/19 06:04:26;;;;;;;78.30;39.38;;;19.60;99.90;;;;;;5106792;28;20177;-56
2022/08/19 06:06:53;;;;;;;75.78;40.15;;;19.60;99.90;;;;;;5093736;28;20185;-58
2022/08/19 06:09:20;;;;;;;85.38;41.85;;;19.60;99.90;;;;;;5095033;28;20302;-58
2022/08/19 06:11:49;;;;;;;79.97;39.55;;;19.60;99.90;;;;;;5099478;28;20236;-58
2022/08/19 06:14:20;;;;;;;87.00;41.42;;;19.70;99.90;;;;;;5093081;28;20177;-58
2022/08/19 06:16:46;;;;;;;82.22;39.90;;;19.60;99.90;;;;;;5097659;28;20169;-56
2022/08/19 06:19:15;;;;;;;87.60;41.55;;;19.60;99.90;;;;;;5102439;28;20231;-56
2022/08/19 06:21:44;;;;;;;91.57;41.90;;;19.70;99.90;;;;;;5101226;28;20271;-55
2022/08/19 06:24:11;;;;;;;84.40;41.03;;;19.70;99.90;;;;;;5087657;27;20173;-55
2022/08/19 06:26:39;;;;;;;91.07;41.58;;;19.80;99.90;;;;;;5106126;28;20693;-54
2022/08/19 06:29:06;;;;;;;85.25;41.15;;;19.80;99.90;;;;;;5105047;28;20227;-58
2022/08/19 06:31:34;;;;;;;97.38;42.75;;;19.80;99.90;;;;;;5089622;28;20681;-58
2022/08/19 06:34:04;;;;;;;87.65;41.78;;;19.90;99.90;;;;;;5076875;28;20186;-57
2022/08/19 06:36:40;;;;;;;80.40;39.88;;;19.90;99.90;;;;;;5111303;28;20169;-58
2022/08/19 06:39:15;;;;;;;79.70;40.45;;;19.90;99.90;;;;;;5106720;28;20180;-58
2022/08/19 06:41:46;;;;;;;78.90;39.53;;;19.90;99.90;;;;;;5104570;28;20187;-58
2022/08/19 06:44:17;;;;;;;74.15;39.00;;;20.00;99.90;;;;;;5109089;28;20578;-59
2022/08/19 06:46:43;;;;;;;78.15;40.20;;;20.00;99.90;;;;;;5103858;28;20181;-58
2022/08/19 06:49:13;;;;;;;79.15;38.78;;;20.10;99.90;;;;;;5110850;28;20241;-58
2022/08/19 06:51:49;;;;;;;80.10;40.08;;;20.10;99.90;;;;;;5098979;28;20212;-60
2022/08/19 06:54:17;;;;;;;80.32;39.05;;;20.10;99.90;;;;;;5102415;28;20263;-53
2022/08/19 06:56:45;;;;;;;83.15;38.65;;;20.20;99.90;;;;;;5102412;28;20177;-50
2022/08/19 06:59:16;;;;;;;87.50;39.55;;;20.20;99.90;;;;;;5110523;28;20343;-56
2022/08/19 07:01:48;;;;;;;75.25;37.67;;;20.20;99.90;;;;;;5103400;28;20564;-50
2022/08/19 07:04:17;;;;;;;69.28;36.22;;;20.30;99.90;;;;;;5092352;28;20181;-52
2022/08/19 07:06:43;;;;;;;73.38;36.90;;;20.30;99.90;;;;;;5085362;28;20177;-56
2022/08/19 07:09:16;;;;;;;62.58;34.78;;;20.40;99.90;;;;;;5090348;28;20178;-54
2022/08/19 07:11:47;;;;;;;69.82;35.28;;;20.50;99.90;;;;;;5105555;28;20619;-56
2022/08/19 07:14:14;;;;;;;81.28;36.33;;;20.50;99.90;;;;;;5092080;28;20181;-58
2022/08/19 07:16:39;;;;;;;75.20;35.47;;;20.60;99.90;;;;;;5106913;28;20181;-57
2022/08/19 07:19:05;;;;;;;67.03;33.15;;;20.60;99.90;;;;;;5096402;28;20173;-54
2022/08/19 07:21:31;;;;;;;63.05;32.65;;;20.80;99.90;;;;;;5107299;28;20250;-56
2022/08/19 07:23:59;;;;;;;61.25;29.77;;;20.80;99.90;;;;;;5064015;28;20971;-56
2022/08/19 07:26:29;;;;;;;54.42;28.02;;;20.90;99.90;;;;;;5070716;28;20515;-56
2022/08/19 07:28:57;;;;;;;51.85;26.58;;;21.00;99.90;;;;;;5100898;28;20173;-58
2022/08/19 07:31:25;;;;;;;51.05;26.42;;;21.10;99.90;;;;;;5095998;28;20743;-58
2022/08/19 07:33:55;;;;;;;55.42;25.00;;;21.20;99.90;;;;;;5102891;28;20212;-58
2022/08/19 07:36:31;;;;;;;47.95;22.90;;;21.20;99.90;;;;;;5095674;28;20177;-57
2022/08/19 07:38:59;;;;;;;39.85;20.40;;;21.30;99.90;;;;;;5083154;28;20174;-58
2022/08/19 07:41:28;;;;;;;40.03;19.20;;;21.30;99.90;;;;;;5108017;28;20277;-58
2022/08/19 07:43:54;;;;;;;38.20;17.80;;;21.40;99.90;;;;;;5084163;28;20539;-59
2022/08/19 07:46:20;;;;;;;30.27;13.70;;;21.40;99.90;;;;;;5108091;28;20579;-52
2022/08/19 07:48:49;;;;;;;27.60;12.60;;;21.40;99.90;;;;;;5116721;28;20213;-59
2022/08/19 07:51:18;;;;;;;22.92;11.57;;;21.50;99.90;;;;;;5062290;28;20210;-59
2022/08/19 07:53:45;;;;;;;22.25;11.27;;;21.50;99.90;;;;;;5092745;28;20196;-54
2022/08/19 07:56:13;;;;;;;20.15;10.27;;;21.60;99.90;;;;;;5098473;28;20609;-54
2022/08/19 07:58:42;;;;;;;19.08;10.02;;;21.60;99.90;;;;;;5061197;28;20186;-60
2022/08/19 08:01:11;;;;;;;24.42;9.85;;;21.60;99.90;;;;;;5106895;28;20525;-60
2022/08/19 08:09:11;;;;;;;26.77;10.43;;;21.70;99.90;;;;;;5113212;28;20230;-55
2022/08/19 08:11:49;;;;;;;19.42;9.93;;;21.80;99.90;;;;;;5096014;28;20209;-56
2022/08/19 08:14:22;;;;;;;18.63;9.13;;;21.80;99.90;;;;;;5095832;28;20204;-55
2022/08/19 08:16:49;;;;;;;25.70;9.95;;;21.80;99.90;;;;;;5113274;28;20173;-57
2022/08/19 08:19:15;;;;;;;17.48;9.13;;;21.80;99.90;;;;;;5113529;28;20245;-54
2022/08/19 08:21:42;;;;;;;21.33;9.50;;;21.80;99.90;;;;;;5095415;28;20494;-57
2022/08/19 08:24:08;;;;;;;17.38;9.00;;;21.80;99.90;;;;;;5110303;28;20181;-58
2022/08/19 08:26:34;;;;;;;18.58;9.75;;;21.80;99.90;;;;;;5095040;28;20174;-57
2022/08/19 08:29:00;;;;;;;22.75;9.60;;;21.80;99.90;;;;;;5104659;28;20236;-56
2022/08/19 08:31:26;;;;;;;20.73;10.02;;;21.90;99.90;;;;;;5094266;28;20221;-58
2022/08/19 08:33:52;;;;;;;17.05;9.60;;;21.90;99.90;;;;;;5095033;28;20178;-57
2022/08/19 08:36:17;;;;;;;16.58;9.50;;;21.90;99.90;;;;;;5106909;28;20185;-61
2022/08/19 08:38:47;;;;;;;22.85;10.18;;;22.00;99.90;;;;;;5095598;28;20549;-59
2022/08/19 08:41:56;;;;;;;17.60;9.27;;;22.00;99.90;;;;;;5095833;28;20196;-58
2022/08/19 08:45:02;;;;;;;15.60;8.73;;;22.00;99.90;;;;;;5096066;28;20165;-57
2022/08/19 08:47:34;;;;;;;19.35;9.07;;;22.10;99.90;;;;;;5094901;28;20624;-58
2022/08/19 08:50:10;;;;;;;19.13;8.50;;;22.20;99.90;;;;;;5095257;28;20174;-56
2022/08/19 08:52:42;;;;;;;17.23;8.70;;;22.20;99.90;;;;;;5104563;28;20684;-58
2022/08/19 08:55:28;;;;;;;20.27;9.20;;;22.30;99.90;;;;;;5104398;28;20200;-58
2022/08/19 08:58:15;;;;;;;23.05;8.20;;;22.30;99.90;;;;;;5094844;28;20222;-61
2022/08/19 09:00:46;;;;;;;16.63;8.32;;;22.30;99.90;;;;;;5094897;28;20173;-60
2022/08/19 09:03:24;;;;;;;19.20;8.20;;;22.40;99.90;;;;;;5076963;28;20162;-60
2022/08/19 09:06:05;;;;;;;21.98;8.95;;;22.50;99.90;;;;;;5090987;28;20177;-59
2022/08/19 09:08:40;;;;;;;19.83;8.70;;;22.50;99.90;;;;;;5096277;28;20228;-61
2022/08/19 09:11:14;;;;;;;15.27;7.70;;;22.60;99.90;;;;;;5111897;28;20192;-60
2022/08/19 09:14:08;;;;;;;18.17;8.60;;;22.70;99.90;;;;;;5114812;28;20207;-61
2022/08/19 09:16:34;;;;;;;16.63;8.30;;;22.70;99.90;;;;;;5090018;28;20177;-61
2022/08/19 09:19:05;;;;;;;15.52;7.85;;;22.80;99.90;;;;;;5094658;28;20179;-61
2022/08/19 09:21:31;;;;;;;16.92;7.72;;;22.70;99.90;;;;;;5111892;28;20625;-60
2022/08/19 09:23:58;;;;;;;15.48;7.57;;;22.80;99.90;;;;;;5115088;28;20187;-61
2022/08/19 09:26:25;;;;;;;20.25;7.63;;;22.80;99.90;;;;;;5095254;28;20194;-60
2022/08/19 09:28:52;;;;;;;14.52;7.68;;;22.80;99.90;;;;;;5094650;28;20257;-61
2022/08/19 09:31:24;;;;;;;15.20;7.10;;;22.80;99.90;;;;;;5094790;28;20233;-60
2022/08/19 09:33:52;;;;;;;12.88;6.60;;;22.80;99.90;;;;;;5095703;28;20256;-61
2022/08/19 09:36:20;;;;;;;19.35;6.50;;;22.80;99.90;;;;;;5095317;28;20189;-60
2022/08/19 09:38:46;;;;;;;17.58;6.70;;;22.90;99.90;;;;;;5093465;28;20170;-61
2022/08/19 09:41:15;;;;;;;19.73;6.85;;;22.90;99.90;;;;;;5076621;28;20242;-60
2022/08/19 09:43:43;;;;;;;18.88;6.68;;;23.00;99.90;;;;;;5093882;28;20178;-62
2022/08/19 09:46:09;;;;;;;17.08;6.72;;;23.00;99.90;;;;;;5078434;28;20193;-60
2022/08/19 09:48:36;;;;;;;14.88;6.25;;;23.10;99.90;;;;;;5075030;28;20274;-61
2022/08/19 09:51:07;;;;;;;13.00;6.45;;;23.10;99.90;;;;;;5103715;28;20197;-62
2022/08/19 09:53:37;;;;;;;14.73;6.30;;;23.20;99.90;;;;;;5095488;28;20177;-61
2022/08/19 09:56:05;;;;;;;15.38;6.47;;;23.20;99.90;;;;;;5097188;28;20178;-61
2022/08/19 09:58:32;;;;;;;11.93;6.07;;;23.20;99.90;;;;;;5059142;28;20174;-59
2022/08/19 10:00:59;;;;;;;19.88;6.32;;;23.20;99.90;;;;;;5101429;28;20178;-61
2022/08/19 10:03:26;;;;;;;11.52;5.82;;;23.30;99.90;;;;;;5102202;28;20181;-64
2022/08/19 10:05:53;;;;;;;12.80;5.50;;;23.40;99.90;;;;;;5096386;28;20181;-59
2022/08/19 10:08:28;;;;;;;16.58;6.32;;;23.50;99.90;;;;;;5074935;28;20185;-62
2022/08/19 10:10:55;;;;;;;14.18;6.93;;;23.50;99.90;;;;;;5093848;28;20224;-63
2022/08/19 10:13:25;;;;;;;17.38;7.40;;;23.60;99.90;;;;;;5111683;28;20178;-60
2022/08/19 10:15:53;;;;;;;10.32;5.22;;;23.50;99.90;;;;;;5080711;28;20188;-60
2022/08/19 10:18:21;;;;;;;12.27;5.55;;;23.40;99.90;;;;;;5089252;28;20194;-59
2022/08/19 10:20:49;;;;;;;13.05;5.28;;;23.50;99.90;;;;;;5101952;28;20185;-63
2022/08/19 10:23:18;;;;;;;15.50;5.30;;;23.30;99.90;;;;;;5110831;28;20181;-60
2022/08/19 10:25:43;;;;;;;9.73;4.75;;;23.30;99.90;;;;;;5088794;28;20287;-62
2022/08/19 10:28:11;;;;;;;13.77;4.85;;;23.30;99.90;;;;;;5092103;28;20169;-58
2022/08/19 10:30:39;;;;;;;16.42;5.05;;;23.30;99.90;;;;;;5110272;28;20181;-62
2022/08/19 10:33:05;;;;;;;12.88;5.13;;;23.30;99.90;;;;;;5110768;28;20177;-60
2022/08/19 10:35:32;;;;;;;12.18;5.25;;;23.40;99.90;;;;;;5081686;28;20181;-61
2022/08/19 10:37:59;;;;;;;9.63;4.97;;;23.50;99.90;;;;;;5074556;28;20621;-64
2022/08/19 10:40:28;;;;;;;9.15;4.32;;;23.50;99.90;;;;;;5097599;28;20659;-64
2022/08/19 10:42:55;;;;;;;10.55;4.75;;;23.50;99.90;;;;;;5109590;28;20185;-60
2022/08/19 10:45:25;;;;;;;11.00;4.80;;;23.60;99.90;;;;;;5100642;28;20197;-63
2022/08/19 10:47:54;;;;;;;16.98;5.13;;;23.70;99.90;;;;;;5109051;28;20221;-60
2022/08/19 10:53:08;;;;;;;11.20;4.63;;;23.80;99.90;;;;;;5100309;28;20179;-60
2022/08/19 10:58:22;;;;;;;12.52;8.20;;;23.90;99.90;;;;;;5083468;28;20264;-59
2022/08/19 11:00:53;;;;;;;13.80;4.93;;;23.90;99.90;;;;;;5098242;28;20184;-60
2022/08/19 11:03:19;;;;;;;10.32;4.65;;;23.80;99.90;;;;;;5117094;28;20609;-59
2022/08/19 11:05:45;;;;;;;16.92;8.85;;;23.70;99.90;;;;;;5102868;28;20174;-59
2022/08/19 11:08:11;;;;;;;12.48;9.88;;;23.60;99.90;;;;;;5082181;28;20246;-60
2022/08/19 11:10:42;;;;;;;12.73;4.88;;;23.60;99.90;;;;;;5103481;27;20169;-58
2022/08/19 11:13:08;;;;;;;10.40;5.72;;;23.70;99.90;;;;;;5104853;28;20177;-56
2022/08/19 11:15:34;;;;;;;11.38;6.85;;;23.70;99.90;;;;;;5103091;28;20298;-57
2022/08/19 11:17:59;;;;;;;10.80;5.80;;;23.80;99.90;;;;;;5097445;28;20189;-60
2022/08/19 11:20:25;;;;;;;11.32;7.03;;;23.90;99.90;;;;;;5106305;28;20181;-58
2022/08/19 11:22:53;;;;;;;11.63;4.40;;;23.90;99.90;;;;;;5097989;28;20181;-59
2022/08/19 11:25:19;;;;;;;8.40;4.47;;;23.90;99.90;;;;;;5097444;28;20191;-59
2022/08/19 11:27:45;;;;;;;9.20;4.57;;;24.00;99.90;;;;;;5080630;28;20181;-59
2022/08/19 11:30:13;;;;;;;7.75;4.15;;;24.00;99.90;;;;;;5106108;28;20166;-58
2022/08/19 11:32:39;;;;;;;9.15;6.75;;;24.10;99.90;;;;;;5096492;28;20338;-60
2022/08/19 11:35:05;;;;;;;7.00;3.78;;;24.20;99.90;;;;;;5103684;28;20177;-58
2022/08/19 11:37:37;;;;;;;7.78;4.75;;;24.20;99.90;;;;;;5097965;28;20173;-59
2022/08/19 11:40:06;;;;;;;10.27;6.45;;;24.30;99.90;;;;;;5099497;28;20722;-59
2022/08/19 11:45:16;;;;;;;7.10;3.47;;;24.30;99.90;;;;;;5096246;28;20185;-59
2022/08/19 11:47:41;;;;;;;6.68;3.17;;;24.30;99.90;;;;;;5077855;28;20229;-58
2022/08/19 11:50:07;;;;;;;5.68;3.38;;;24.30;99.90;;;;;;5100948;27;20203;-60
2022/08/19 11:52:33;;;;;;;9.52;3.47;;;24.20;99.90;;;;;;5108262;28;20227;-59
2022/08/19 11:54:59;;;;;;;6.72;3.40;;;24.20;99.90;;;;;;5105894;28;20177;-59
2022/08/19 11:57:25;;;;;;;9.00;3.30;;;24.10;99.90;;;;;;5094740;28;20629;-58
2022/08/19 11:59:52;;;;;;;6.85;3.20;;;24.10;99.90;;;;;;5095936;28;20198;-58
2022/08/19 12:02:18;;;;;;;8.15;3.10;;;24.20;99.90;;;;;;5095066;28;20227;-56
2022/08/19 12:04:44;;;;;;;5.60;2.97;;;24.40;99.90;;;;;;5081430;28;20177;-55
2022/08/19 12:07:10;;;;;;;4.38;2.35;;;24.50;99.90;;;;;;5097996;28;20506;-54
2022/08/19 12:09:36;;;;;;;4.70;2.58;;;24.60;99.90;;;;;;5111003;28;20225;-56
2022/08/19 12:12:02;;;;;;;7.78;2.60;;;24.70;99.90;;;;;;5097680;28;20219;-57
2022/08/19 12:14:30;;;;;;;5.75;2.60;;;24.70;99.90;;;;;;5115551;28;20534;-58
2022/08/19 12:16:56;;;;;;;4.13;2.60;;;24.70;99.90;;;;;;5097748;28;20192;-59
2022/08/19 12:19:22;;;;;;;5.82;2.40;;;24.80;99.90;;;;;;5101958;28;20177;-58
2022/08/19 12:21:49;;;;;;;7.63;2.13;;;25.00;99.90;;;;;;5095820;28;20519;-58
2022/08/19 12:24:15;;;;;;;5.85;2.60;;;25.20;99.90;;;;;;5098596;28;20755;-58
2022/08/19 12:26:42;;;;;;;4.18;2.33;;;25.20;99.90;;;;;;5088348;28;20191;-57
2022/08/19 12:29:08;;;;;;;5.65;2.33;;;25.30;99.90;;;;;;5115806;28;20256;-59
2022/08/19 12:31:34;;;;;;;8.63;2.70;;;25.40;99.90;;;;;;5095158;28;20216;-58
2022/08/19 12:34:02;;;;;;;6.30;2.42;;;25.50;99.90;;;;;;5080699;28;20182;-58
2022/08/19 12:36:28;;;;;;;6.80;2.22;;;25.60;99.90;;;;;;5095746;28;20177;-56
2022/08/19 12:38:53;;;;;;;6.07;2.28;;;25.80;99.90;;;;;;5094341;28;20181;-59
2022/08/19 12:41:21;;;;;;;5.90;2.28;;;25.90;99.90;;;;;;5097528;28;20190;-59
2022/08/19 12:43:49;;;;;;;4.38;2.13;;;25.80;99.90;;;;;;5112844;28;20169;-58
2022/08/19 12:46:14;;;;;;;3.67;1.83;;;25.90;99.90;;;;;;5077024;28;20186;-60
2022/08/19 12:48:44;;;;;;;4.07;1.75;;;26.00;99.90;;;;;;5043008;28;20240;-58
2022/08/19 12:51:14;;;;;;;4.28;1.90;;;26.10;99.90;;;;;;5096806;28;20248;-59
2022/08/19 12:53:40;;;;;;;6.70;3.53;;;26.00;99.90;;;;;;5110900;27;20538;-59
2022/08/19 12:56:07;;;;;;;3.83;2.35;;;26.00;99.90;;;;;;5076540;28;20182;-59